Time;durP1;ratioP1;P1;durP2;ratioP2;P2;SDS_P1;SDS_P2;PMS_P1;PMS_P2;Temp;Humidity;BMP_temperature;BMP_pressure;BME280_temperature;BME280_humidity;BME280_pressure;Samples;Min_cycle;Max_cycle;Signal;HPM_P1;HPM_P2
2023/08/10 00:01:31;;;;;;;;;;;22.60;99.90;;;;;;5136920;27;19954;-69
2023/08/10 00:03:57;;;;;;;;;;;22.70;99.90;;;;;;5136789;27;19907;-70
2023/08/10 00:06:23;;;;;;;;;;;22.70;99.90;;;;;;5135681;27;19904;-70
2023/08/10 00:08:50;;;;;;;;;;;22.60;99.90;;;;;;5136742;27;20041;-70
2023/08/10 00:11:15;;;;;;;;;;;22.50;99.90;;;;;;5136771;27;19926;-70
2023/08/10 00:13:41;;;;;;;;;;;22.50;99.90;;;;;;5137091;27;20323;-69
2023/08/10 00:16:07;;;;;;;;;;;22.50;99.90;;;;;;5137020;27;20355;-70
2023/08/10 00:18:33;;;;;;;;;;;22.50;99.90;;;;;;5136485;27;19910;-70
2023/08/10 00:20:59;;;;;;;;;;;22.50;99.90;;;;;;5136275;27;19918;-70
2023/08/10 00:23:25;;;;;;;;;;;22.50;99.90;;;;;;5136423;27;19926;-70
2023/08/10 00:25:51;;;;;;;;;;;22.50;99.90;;;;;;5136862;27;20344;-70
2023/08/10 00:28:17;;;;;;;;;;;22.40;99.90;;;;;;5134936;27;19912;-70
2023/08/10 00:30:43;;;;;;;;;;;22.30;99.90;;;;;;5136738;27;19956;-70
2023/08/10 00:33:09;;;;;;;;;;;22.30;99.90;;;;;;5136277;27;20348;-70
2023/08/10 00:35:38;;;;;;;;;;;22.30;99.90;;;;;;5136064;27;19951;-70
2023/08/10 00:38:04;;;;;;;;;;;22.30;99.90;;;;;;5136088;27;19919;-70
2023/08/10 00:40:30;;;;;;;;;;;22.40;99.90;;;;;;5136391;27;19920;-69
2023/08/10 00:42:58;;;;;;;;;;;22.30;99.90;;;;;;5136040;27;19911;-70
2023/08/10 00:45:24;;;;;;;;;;;22.30;99.90;;;;;;5134629;27;20007;-70
2023/08/10 00:47:52;;;;;;;;;;;22.30;99.90;;;;;;5135971;27;20363;-70
2023/08/10 00:50:17;;;;;;;;;;;22.30;99.90;;;;;;5135896;27;20269;-70
2023/08/10 00:52:44;;;;;;;;;;;22.30;99.90;;;;;;5136086;27;20303;-70
2023/08/10 00:55:10;;;;;;;;;;;22.20;99.90;;;;;;5135851;27;19930;-69
2023/08/10 00:57:37;;;;;;;;;;;22.20;99.90;;;;;;5135833;27;20367;-70
2023/08/10 01:00:05;;;;;;;;;;;22.10;99.90;;;;;;5135291;27;19996;-70
2023/08/10 01:02:31;;;;;;;;;;;22.00;99.90;;;;;;5134206;27;19907;-70
2023/08/10 01:04:57;;;;;;;;;;;22.10;99.90;;;;;;5135370;27;20271;-70
2023/08/10 01:07:41;;;;;;;;;;;22.10;99.90;;;;;;5135993;27;19903;-70
2023/08/10 01:10:15;;;;;;;;;;;22.10;99.90;;;;;;5135774;27;19910;-71
2023/08/10 01:12:53;;;;;;;;;;;22.10;99.90;;;;;;5136551;27;19914;-70
2023/08/10 01:15:22;;;;;;;;;;;22.10;99.90;;;;;;5135406;27;19903;-69
2023/08/10 01:17:51;;;;;;;;;;;22.10;99.90;;;;;;5135329;27;19904;-70
2023/08/10 01:20:18;;;;;;;;;;;21.90;99.90;;;;;;5135049;27;20312;-70
2023/08/10 01:22:50;;;;;;;;;;;21.90;99.90;;;;;;5135446;27;19939;-70
2023/08/10 01:25:16;;;;;;;;;;;21.90;99.90;;;;;;5135482;27;19904;-70
2023/08/10 01:27:44;;;;;;;;;;;22.00;99.90;;;;;;5135376;27;20343;-70
2023/08/10 01:30:11;;;;;;;;;;;22.00;99.90;;;;;;5135403;27;20335;-70
2023/08/10 01:32:37;;;;;;;;;;;22.00;99.90;;;;;;5134994;27;19903;-69
2023/08/10 01:35:06;;;;;;;;;;;22.00;99.90;;;;;;5134939;27;19903;-70
2023/08/10 01:37:33;;;;;;;;;;;22.00;99.90;;;;;;5134995;27;19915;-69
2023/08/10 01:39:59;;;;;;;;;;;21.90;99.90;;;;;;5134816;27;19925;-71
2023/08/10 01:42:25;;;;;;;;;;;21.90;99.90;;;;;;5135008;27;19961;-70
2023/08/10 01:44:51;;;;;;;;;;;21.80;99.90;;;;;;5134752;27;19971;-70
2023/08/10 01:47:23;;;;;;;;;;;21.80;99.90;;;;;;5134810;27;20419;-70
2023/08/10 01:49:53;;;;;;;;;;;21.80;99.90;;;;;;5134762;27;19904;-70
2023/08/10 01:52:19;;;;;;;;;;;21.70;99.90;;;;;;5133218;27;19904;-70
2023/08/10 01:54:45;;;;;;;;;;;21.70;99.90;;;;;;5134652;27;20377;-70
2023/08/10 01:57:12;;;;;;;;;;;21.70;99.90;;;;;;5133190;27;19926;-70
2023/08/10 01:59:38;;;;;;;;;;;21.80;99.90;;;;;;5134904;27;19927;-71
2023/08/10 02:02:03;;;;;;;;;;;21.80;99.90;;;;;;5134645;27;20006;-70
2023/08/10 02:04:29;;;;;;;;;;;21.80;99.90;;;;;;5134594;27;19908;-71
2023/08/10 02:06:55;;;;;;;;;;;21.90;99.90;;;;;;5134629;27;19905;-70
2023/08/10 02:09:21;;;;;;;;;;;21.80;99.90;;;;;;5134534;27;19907;-70
2023/08/10 02:11:47;;;;;;;;;;;21.80;99.90;;;;;;5134713;27;19907;-70
2023/08/10 02:14:12;;;;;;;;;;;21.80;99.90;;;;;;5132955;27;19903;-70
2023/08/10 02:16:38;;;;;;;;;;;21.80;99.90;;;;;;5134155;27;19926;-70
2023/08/10 02:19:04;;;;;;;;;;;21.80;99.90;;;;;;5132638;27;19908;-71
2023/08/10 02:21:30;;;;;;;;;;;21.80;99.90;;;;;;5134453;27;19973;-70
2023/08/10 02:23:56;;;;;;;;;;;21.70;99.90;;;;;;5134404;27;20010;-70
2023/08/10 02:26:22;;;;;;;;;;;21.80;99.90;;;;;;5134094;27;19910;-70
2023/08/10 02:28:48;;;;;;;;;;;21.90;99.90;;;;;;5134314;27;19903;-71
2023/08/10 02:31:14;;;;;;;;;;;21.90;99.90;;;;;;5132641;27;19911;-70
2023/08/10 02:33:40;;;;;;;;;;;21.90;99.90;;;;;;5132623;27;19927;-71
2023/08/10 02:36:06;;;;;;;;;;;21.70;99.90;;;;;;5133819;27;19990;-70
2023/08/10 02:38:32;;;;;;;;;;;21.60;99.90;;;;;;5133754;27;19964;-70
2023/08/10 02:40:57;;;;;;;;;;;21.50;99.90;;;;;;5132425;27;19918;-72
2023/08/10 02:43:23;;;;;;;;;;;21.40;99.90;;;;;;5132532;27;20004;-70
2023/08/10 02:45:49;;;;;;;;;;;21.40;99.90;;;;;;5132446;27;19999;-70
2023/08/10 02:48:15;;;;;;;;;;;21.50;99.90;;;;;;5133757;27;19903;-70
2023/08/10 02:50:40;;;;;;;;;;;21.60;99.90;;;;;;5133694;27;20278;-70
2023/08/10 02:53:06;;;;;;;;;;;21.60;99.90;;;;;;5134204;27;19903;-70
2023/08/10 02:55:32;;;;;;;;;;;21.60;99.90;;;;;;5133721;28;19911;-71
2023/08/10 02:57:58;;;;;;;;;;;21.60;99.90;;;;;;5132372;28;19904;-70
2023/08/10 03:00:24;;;;;;;;;;;21.60;99.90;;;;;;5132258;28;19968;-71
2023/08/10 03:02:50;;;;;;;;;;;21.60;99.90;;;;;;5133943;27;19949;-71
2023/08/10 03:05:18;;;;;;;;;;;21.50;99.90;;;;;;5132138;28;19911;-71
2023/08/10 03:07:45;;;;;;;;;;;21.50;99.90;;;;;;5133923;27;19926;-70
2023/08/10 03:10:11;;;;;;;;;;;21.50;99.90;;;;;;5133566;27;20003;-70
2023/08/10 03:12:37;;;;;;;;;;;21.50;99.90;;;;;;5133577;27;19903;-70
2023/08/10 03:15:05;;;;;;;;;;;21.50;99.90;;;;;;5133454;27;19910;-70
2023/08/10 03:17:31;;;;;;;;;;;21.50;99.90;;;;;;5133675;27;19925;-70
2023/08/10 03:19:57;;;;;;;;;;;21.40;99.90;;;;;;5133250;27;20355;-70
2023/08/10 03:22:26;;;;;;;;;;;21.50;99.90;;;;;;5133435;27;20002;-70
2023/08/10 03:24:52;;;;;;;;;;;21.50;99.90;;;;;;5137397;27;19903;-70
2023/08/10 03:27:17;;;;;;;;;;;21.50;99.90;;;;;;5137563;27;19917;-70
2023/08/10 03:29:44;;;;;;;;;;;21.50;99.90;;;;;;5137880;27;19903;-70
2023/08/10 03:32:10;;;;;;;;;;;21.50;99.90;;;;;;5137479;27;19960;-70
2023/08/10 03:34:36;;;;;;;;;;;21.50;99.90;;;;;;5137222;27;19904;-70
2023/08/10 03:37:03;;;;;;;;;;;21.50;99.90;;;;;;5135823;27;20002;-69
2023/08/10 03:39:29;;;;;;;;;;;21.50;99.90;;;;;;5137114;27;19956;-70
2023/08/10 03:41:55;;;;;;;;;;;21.50;99.90;;;;;;5137759;27;19912;-70
2023/08/10 03:44:21;;;;;;;;;;;21.40;99.90;;;;;;5137256;27;19912;-69
2023/08/10 03:46:48;;;;;;;;;;;21.50;99.90;;;;;;5137217;27;19903;-70
2023/08/10 03:49:13;;;;;;;;;;;21.40;99.90;;;;;;5136809;27;19903;-70
2023/08/10 03:51:39;;;;;;;;;;;21.50;99.90;;;;;;5137189;27;20371;-70
2023/08/10 03:54:05;;;;;;;;;;;21.50;99.90;;;;;;5136965;27;19903;-72
2023/08/10 03:56:31;;;;;;;;;;;21.40;99.90;;;;;;5136854;27;19907;-70
2023/08/10 03:58:57;;;;;;;;;;;21.40;99.90;;;;;;5136870;27;19929;-70
2023/08/10 04:01:23;;;;;;;;;;;21.30;99.90;;;;;;5137300;27;20309;-70
2023/08/10 04:03:49;;;;;;;;;;;21.40;99.90;;;;;;5136835;27;20314;-70
2023/08/10 04:06:16;;;;;;;;;;;21.40;99.90;;;;;;5136526;27;19910;-70
2023/08/10 04:08:42;;;;;;;;;;;21.40;99.90;;;;;;5136737;27;20298;-70
2023/08/10 04:11:08;;;;;;;;;;;21.40;99.90;;;;;;5136668;27;19903;-70
2023/08/10 04:13:34;;;;;;;;;;;21.30;99.90;;;;;;5137003;27;20104;-70
2023/08/10 04:15:59;;;;;;;;;;;21.40;99.90;;;;;;5152455;27;19929;-70
2023/08/10 04:18:25;;;;;;;;;;;21.40;99.90;;;;;;5136624;27;19904;-70
2023/08/10 04:20:51;;;;;;;;;;;21.30;99.90;;;;;;5136401;27;19915;-71
2023/08/10 04:23:19;;;;;;;;;;;21.40;99.90;;;;;;5136392;27;19956;-70
2023/08/10 04:25:44;;;;;;;;;;;21.40;99.90;;;;;;5136646;27;19910;-71
2023/08/10 04:28:10;;;;;;;;;;;21.50;99.90;;;;;;5135028;27;19907;-70
2023/08/10 04:30:37;;;;;;;;;;;21.50;99.90;;;;;;5136673;27;20251;-70
2023/08/10 04:33:04;;;;;;;;;;;21.50;99.90;;;;;;5136308;27;19911;-70
2023/08/10 04:35:30;;;;;;;;;;;21.50;99.90;;;;;;5135129;27;19907;-70
2023/08/10 04:37:55;;;;;;;;;;;21.50;99.90;;;;;;5135944;27;19950;-70
2023/08/10 04:40:21;;;;;;;;;;;21.60;99.90;;;;;;5136011;27;20013;-70
2023/08/10 04:42:48;;;;;;;;;;;21.60;99.90;;;;;;5136248;27;19938;-70
2023/08/10 04:45:14;;;;;;;;;;;21.50;99.90;;;;;;5136011;27;19907;-71
2023/08/10 04:47:40;;;;;;;;;;;21.60;99.90;;;;;;5134602;27;19903;-70
2023/08/10 04:50:07;;;;;;;;;;;21.60;99.90;;;;;;5135847;27;19904;-70
2023/08/10 04:52:32;;;;;;;;;;;21.70;99.90;;;;;;5135852;27;19903;-70
2023/08/10 04:54:58;;;;;;;;;;;21.70;99.90;;;;;;5135827;27;19903;-70
2023/08/10 04:57:24;;;;;;;;;;;21.80;99.90;;;;;;5136079;27;19903;-70
2023/08/10 04:59:50;;;;;;;;;;;21.90;99.90;;;;;;5135640;27;19954;-70
2023/08/10 05:02:16;;;;;;;;;;;21.90;99.90;;;;;;5134061;27;20013;-70
2023/08/10 05:04:42;;;;;;;;;;;21.90;99.90;;;;;;5135596;27;20365;-71
2023/08/10 05:07:07;;;;;;;;;;;21.90;99.90;;;;;;5135697;27;20298;-70
2023/08/10 05:09:34;;;;;;;;;;;21.90;99.90;;;;;;5135269;27;19903;-70
2023/08/10 05:12:00;;;;;;;;;;;21.90;99.90;;;;;;5135728;27;19910;-70
2023/08/10 05:14:26;;;;;;;;;;;21.90;99.90;;;;;;5135035;27;19903;-70
2023/08/10 05:16:51;;;;;;;;;;;21.90;99.90;;;;;;5133738;27;19945;-71
2023/08/10 05:19:17;;;;;;;;;;;22.00;99.90;;;;;;5133588;27;20355;-71
2023/08/10 05:21:43;;;;;;;;;;;22.70;99.90;;;;;;5135009;27;19911;-71
2023/08/10 05:24:09;;;;;;;;;;;24.00;99.90;;;;;;5135467;27;19990;-71
2023/08/10 05:26:35;;;;;;;;;;;25.50;99.90;;;;;;5135111;27;19903;-70
2023/08/10 05:29:01;;;;;;;;;;;26.50;99.90;;;;;;5135035;27;19911;-71
2023/08/10 05:31:27;;;;;;;;;;;27.40;99.90;;;;;;5134993;27;20297;-71
2023/08/10 05:33:52;;;;;;;;;;;28.00;99.90;;;;;;5134710;27;19904;-71
2023/08/10 05:36:18;;;;;;;;;;;28.20;99.90;;;;;;5134470;27;20247;-72
2023/08/10 05:38:44;;;;;;;;;;;28.30;99.90;;;;;;5134520;27;19941;-71
2023/08/10 05:41:10;;;;;;;;;;;28.30;99.90;;;;;;5134768;27;19911;-71
2023/08/10 05:43:36;;;;;;;;;;;28.50;99.90;;;;;;5134689;27;19911;-71
2023/08/10 05:46:02;;;;;;;;;;;28.50;99.90;;;;;;5134618;27;19979;-71
2023/08/10 05:48:27;;;;;;;;;;;29.10;99.90;;;;;;5132975;27;19903;-71
2023/08/10 05:50:53;;;;;;;;;;;28.60;99.90;;;;;;5134360;27;19903;-70
2023/08/10 05:53:20;;;;;;;;;;;28.60;99.90;;;;;;5132883;27;19903;-71
2023/08/10 05:55:46;;;;;;;;;;;28.90;99.90;;;;;;5133013;27;19958;-71
2023/08/10 05:58:11;;;;;;;;;;;29.30;99.90;;;;;;5134125;27;19952;-71
2023/08/10 06:00:38;;;;;;;;;;;30.30;99.90;;;;;;5134307;27;19915;-71
2023/08/10 06:03:04;;;;;;;;;;;30.20;99.90;;;;;;5134203;27;19939;-71
2023/08/10 06:05:32;;;;;;;;;;;29.30;99.90;;;;;;5134092;27;19941;-71
2023/08/10 06:07:59;;;;;;;;;;;29.40;99.90;;;;;;5134552;27;19903;-71
2023/08/10 06:10:25;;;;;;;;;;;30.00;99.90;;;;;;5134026;27;19904;-71
2023/08/10 06:12:51;;;;;;;;;;;29.40;99.90;;;;;;5134172;27;19911;-71
2023/08/10 06:15:16;;;;;;;;;;;29.90;99.90;;;;;;5133967;27;20010;-71
2023/08/10 06:17:42;;;;;;;;;;;29.80;99.90;;;;;;5132529;27;19904;-71
2023/08/10 06:20:16;;;;;;;;;;;30.20;99.90;;;;;;5133515;27;19907;-71
2023/08/10 06:22:43;;;;;;;;;;;31.20;99.90;;;;;;5132423;27;19914;-70
2023/08/10 06:25:09;;;;;;;;;;;31.30;99.90;;;;;;5134125;27;19903;-70
2023/08/10 06:27:35;;;;;;;;;;;31.10;99.90;;;;;;5133988;27;19910;-71
2023/08/10 06:30:02;;;;;;;;;;;32.40;99.90;;;;;;5133795;27;19941;-71
2023/08/10 06:32:28;;;;;;;;;;;33.60;99.90;;;;;;5133768;27;19910;-71
2023/08/10 06:34:54;;;;;;;;;;;33.90;98.70;;;;;;5133407;27;19930;-71
2023/08/10 06:37:20;;;;;;;;;;;33.10;99.40;;;;;;5133393;27;19927;-71
2023/08/10 06:39:48;;;;;;;;;;;33.20;98.80;;;;;;5133535;27;19911;-71
2023/08/10 06:42:14;;;;;;;;;;;33.20;98.10;;;;;;5133779;27;19996;-71
2023/08/10 06:44:40;;;;;;;;;;;34.10;97.30;;;;;;5133552;27;20338;-71
2023/08/10 06:47:06;;;;;;;;;;;34.20;96.60;;;;;;5133601;27;19903;-71
2023/08/10 06:49:32;;;;;;;;;;;33.20;97.50;;;;;;5133550;27;19909;-71
2023/08/10 06:51:57;;;;;;;;;;;33.80;97.20;;;;;;5133619;27;20390;-71
2023/08/10 06:54:24;;;;;;;;;;;34.20;96.40;;;;;;5133500;27;19938;-71
2023/08/10 06:56:49;;;;;;;;;;;35.10;96.30;;;;;;5133756;27;19903;-71
2023/08/10 06:59:17;;;;;;;;;;;35.60;94.70;;;;;;5132899;27;19904;-71
2023/08/10 07:01:43;;;;;;;;;;;34.70;94.50;;;;;;5133299;28;20105;-71
2023/08/10 07:04:09;;;;;;;;;;;35.80;94.40;;;;;;5133318;27;19903;-71
2023/08/10 07:06:35;;;;;;;;;;;36.20;93.10;;;;;;5133140;28;19952;-71
2023/08/10 07:09:01;;;;;;;;;;;35.70;93.10;;;;;;5133686;28;19911;-71
2023/08/10 07:11:27;;;;;;;;;;;37.30;92.50;;;;;;5133521;28;19991;-72
2023/08/10 07:13:52;;;;;;;;;;;37.00;90.90;;;;;;5133358;27;19903;-72
2023/08/10 07:16:19;;;;;;;;;;;37.60;90.20;;;;;;5133744;27;19911;-72
2023/08/10 07:18:46;;;;;;;;;;;37.60;89.30;;;;;;5133669;27;20244;-71
2023/08/10 07:21:13;;;;;;;;;;;38.30;88.60;;;;;;5132962;27;19958;-70
2023/08/10 07:23:39;;;;;;;;;;;37.80;88.00;;;;;;5133546;27;19956;-71
2023/08/10 07:26:05;;;;;;;;;;;36.50;87.00;;;;;;5133100;28;20261;-71
2023/08/10 07:28:32;;;;;;;;;;;36.70;87.90;;;;;;5133465;28;19911;-72
2023/08/10 07:31:03;;;;;;;;;;;37.10;86.90;;;;;;5133225;27;19948;-72
2023/08/10 07:33:29;;;;;;;;;;;37.00;86.70;;;;;;5133088;27;19930;-71
2023/08/10 07:35:55;;;;;;;;;;;36.00;87.80;;;;;;5132804;27;20068;-71
2023/08/10 07:38:21;;;;;;;;;;;34.30;90.10;;;;;;5132834;27;20414;-71
2023/08/10 07:40:47;;;;;;;;;;;33.90;90.20;;;;;;5131642;28;20374;-71
2023/08/10 07:43:13;;;;;;;;;;;32.60;91.50;;;;;;5133035;27;20054;-71
2023/08/10 07:45:39;;;;;;;;;;;32.80;91.50;;;;;;5133021;27;19973;-71
2023/08/10 07:48:05;;;;;;;;;;;33.30;91.50;;;;;;5133331;28;19907;-71
2023/08/10 07:50:31;;;;;;;;;;;33.70;91.30;;;;;;5131334;28;20020;-71
2023/08/10 07:52:58;;;;;;;;;;;33.70;90.90;;;;;;5132889;27;19911;-71
2023/08/10 07:55:23;;;;;;;;;;;33.30;90.50;;;;;;5133285;27;19911;-71
2023/08/10 07:57:49;;;;;;;;;;;31.90;91.70;;;;;;5132861;27;19904;-70
2023/08/10 08:00:16;;;;;;;;;;;32.10;92.50;;;;;;5133332;27;19907;-70
2023/08/10 08:02:41;;;;;;;;;;;32.60;92.40;;;;;;5131499;28;19915;-71
2023/08/10 08:05:07;;;;;;;;;;;33.50;91.80;;;;;;5132595;27;19904;-71
2023/08/10 08:07:33;;;;;;;;;;;33.40;91.60;;;;;;5133067;27;19915;-70
2023/08/10 08:09:59;;;;;;;;;;;33.40;90.60;;;;;;5134732;27;19911;-71
2023/08/10 08:12:26;;;;;;;;;;;34.00;90.70;;;;;;5136430;27;19946;-70
2023/08/10 08:14:52;;;;;;;;;;;33.80;91.10;;;;;;5136351;27;20002;-69
2023/08/10 08:17:19;;;;;;;;;;;32.80;92.70;;;;;;5136590;27;20402;-70
2023/08/10 08:19:45;;;;;;;;;;;32.30;93.00;;;;;;5136142;27;19943;-71
2023/08/10 08:22:11;;;;;;;;;;;32.50;92.80;;;;;;5136606;27;19957;-71
2023/08/10 08:24:37;;;;;;;;;;;32.80;92.80;;;;;;5136351;27;20373;-71
2023/08/10 08:27:02;;;;;;;;;;;32.90;92.60;;;;;;5136142;27;19903;-70
2023/08/10 08:29:30;;;;;;;;;;;33.10;92.80;;;;;;5136046;27;20347;-70
2023/08/10 08:31:56;;;;;;;;;;;33.00;92.80;;;;;;5136028;27;19904;-70
2023/08/10 08:34:22;;;;;;;;;;;33.20;93.20;;;;;;5136369;27;19960;-70
2023/08/10 08:36:48;;;;;;;;;;;33.30;92.80;;;;;;5135509;27;19914;-70
2023/08/10 08:39:14;;;;;;;;;;;33.50;92.50;;;;;;5136036;27;20347;-70
2023/08/10 08:41:41;;;;;;;;;;;33.30;92.90;;;;;;5135868;27;19911;-71
2023/08/10 08:44:08;;;;;;;;;;;33.10;92.80;;;;;;5135804;27;20290;-70
2023/08/10 08:46:38;;;;;;;;;;;33.10;92.90;;;;;;5135748;27;19990;-71
2023/08/10 08:49:05;;;;;;;;;;;32.80;92.80;;;;;;5135989;27;19948;-71
2023/08/10 08:51:31;;;;;;;;;;;32.90;92.60;;;;;;5135509;27;19903;-71
2023/08/10 08:54:00;;;;;;;;;;;32.60;92.60;;;;;;5135482;27;19903;-71
2023/08/10 08:56:26;;;;;;;;;;;32.80;92.50;;;;;;5136095;27;19904;-72
2023/08/10 08:58:52;;;;;;;;;;;32.60;92.60;;;;;;5135682;27;19933;-71
2023/08/10 09:01:19;;;;;;;;;;;32.60;92.40;;;;;;5135530;27;19912;-71
2023/08/10 09:03:45;;;;;;;;;;;32.60;92.40;;;;;;5135979;27;19953;-71
2023/08/10 09:06:11;;;;;;;;;;;32.60;92.00;;;;;;5135304;27;19903;-71
2023/08/10 09:08:38;;;;;;;;;;;32.70;91.70;;;;;;5135468;27;19904;-71
2023/08/10 09:11:04;;;;;;;;;;;32.80;91.70;;;;;;5135165;27;19963;-71
2023/08/10 09:13:30;;;;;;;;;;;32.50;91.40;;;;;;5135318;27;19904;-71
2023/08/10 09:16:10;;;;;;;;;;;32.40;91.40;;;;;;5135732;27;19904;-69
2023/08/10 09:18:37;;;;;;;;;;;32.30;91.70;;;;;;5135194;27;19910;-71
2023/08/10 09:21:11;;;;;;;;;;;32.00;91.80;;;;;;5134302;27;19911;-70
2023/08/10 09:23:37;;;;;;;;;;;31.70;92.50;;;;;;5135020;27;19925;-70
2023/08/10 09:26:08;;;;;;;;;;;31.80;92.50;;;;;;5135566;27;19903;-72
2023/08/10 09:28:37;;;;;;;;;;;31.90;92.70;;;;;;5134907;27;19926;-71
2023/08/10 09:31:03;;;;;;;;;;;31.50;93.10;;;;;;5135174;27;19910;-70
2023/08/10 09:33:31;;;;;;;;;;;31.50;93.50;;;;;;5134775;27;19907;-70
2023/08/10 09:36:00;;;;;;;;;;;31.80;93.30;;;;;;5134637;27;19941;-70
2023/08/10 09:38:27;;;;;;;;;;;31.70;93.50;;;;;;5134476;27;19921;-70
2023/08/10 09:41:08;;;;;;;;;;;31.40;93.90;;;;;;5134517;27;20374;-71
2023/08/10 09:43:36;;;;;;;;;;;31.20;94.40;;;;;;5134785;27;19982;-71
2023/08/10 09:46:05;;;;;;;;;;;31.10;94.70;;;;;;5134469;27;19941;-70
2023/08/10 09:48:35;;;;;;;;;;;31.00;95.10;;;;;;5134359;27;19995;-70
2023/08/10 09:51:08;;;;;;;;;;;30.80;95.10;;;;;;5132909;27;19949;-71
2023/08/10 09:53:35;;;;;;;;;;;31.10;95.20;;;;;;5134621;27;20375;-70
2023/08/10 09:56:01;;;;;;;;;;;31.20;95.00;;;;;;5134140;27;19907;-71
2023/08/10 09:58:27;;;;;;;;;;;30.90;95.60;;;;;;5134359;27;20279;-70
2023/08/10 10:00:53;;;;;;;;;;;31.00;95.40;;;;;;5134182;27;20006;-70
2023/08/10 10:03:22;;;;;;;;;;;31.00;95.40;;;;;;5134359;27;19904;-70
2023/08/10 10:05:49;;;;;;;;;;;31.10;95.40;;;;;;5134031;27;19903;-70
2023/08/10 10:08:19;;;;;;;;;;;30.70;95.50;;;;;;5132550;27;19967;-70
2023/08/10 10:10:45;;;;;;;;;;;30.70;95.80;;;;;;5134185;27;19903;-71
2023/08/10 10:13:12;;;;;;;;;;;30.50;95.80;;;;;;5134051;27;19929;-71
2023/08/10 10:15:48;;;;;;;;;;;30.50;95.80;;;;;;5133782;27;19998;-71
2023/08/10 10:18:14;;;;;;;;;;;30.50;96.00;;;;;;5132379;27;20395;-71
2023/08/10 10:20:42;;;;;;;;;;;30.70;95.60;;;;;;5133655;27;19911;-71
2023/08/10 10:23:20;;;;;;;;;;;30.40;96.20;;;;;;5133980;27;19911;-71
2023/08/10 10:25:56;;;;;;;;;;;30.40;96.30;;;;;;5133807;27;19911;-71
2023/08/10 10:28:23;;;;;;;;;;;30.40;96.00;;;;;;5134006;27;19997;-70
2023/08/10 10:30:56;;;;;;;;;;;30.20;96.30;;;;;;5133741;27;19903;-71
2023/08/10 10:33:23;;;;;;;;;;;30.00;96.60;;;;;;5132923;27;19907;-71
2023/08/10 10:36:08;;;;;;;;;;;30.20;96.60;;;;;;5133581;27;19937;-71
2023/08/10 10:38:34;;;;;;;;;;;30.40;96.60;;;;;;5133528;27;19916;-71
2023/08/10 10:41:12;;;;;;;;;;;30.40;96.60;;;;;;5132034;27;19938;-70
2023/08/10 10:43:38;;;;;;;;;;;30.30;96.50;;;;;;5134072;27;19903;-71
2023/08/10 10:46:04;;;;;;;;;;;30.30;96.70;;;;;;5134010;27;19903;-72
2023/08/10 10:48:34;;;;;;;;;;;30.50;96.40;;;;;;5133425;27;19952;-73
2023/08/10 10:51:04;;;;;;;;;;;30.50;96.50;;;;;;5133313;27;19904;-72
2023/08/10 10:53:30;;;;;;;;;;;30.70;96.10;;;;;;5133399;27;19994;-72
2023/08/10 10:55:57;;;;;;;;;;;30.60;96.00;;;;;;5133781;27;20016;-71
2023/08/10 10:58:25;;;;;;;;;;;30.80;95.70;;;;;;5133447;27;19907;-71
2023/08/10 11:00:51;;;;;;;;;;;30.80;95.60;;;;;;5133907;27;19987;-71
2023/08/10 11:03:19;;;;;;;;;;;31.00;95.40;;;;;;5133457;27;20343;-71
2023/08/10 11:05:45;;;;;;;;;;;30.90;95.20;;;;;;5133319;27;19904;-72
2023/08/10 11:08:12;;;;;;;;;;;30.80;95.00;;;;;;5133329;27;19947;-71
2023/08/10 11:10:40;;;;;;;;;;;30.70;95.10;;;;;;5133661;27;19910;-71
2023/08/10 11:13:06;;;;;;;;;;;30.60;95.30;;;;;;5133339;27;19907;-72
2023/08/10 11:15:33;;;;;;;;;;;30.50;95.30;;;;;;5131962;28;20270;-72
2023/08/10 11:17:59;;;;;;;;;;;30.40;95.30;;;;;;5133376;27;19983;-70
2023/08/10 11:20:25;;;;;;;;;;;30.50;94.80;;;;;;5133352;28;20016;-72
2023/08/10 11:22:52;;;;;;;;;;;30.50;94.00;;;;;;5133188;27;19903;-71
2023/08/10 11:25:20;;;;;;;;;;;29.80;94.50;;;;;;5133675;27;20330;-71
2023/08/10 11:27:47;;;;;;;;;;;30.00;94.80;;;;;;5133426;27;19903;-72
2023/08/10 11:30:15;;;;;;;;;;;29.70;95.30;;;;;;5133485;27;19904;-72
2023/08/10 11:32:41;;;;;;;;;;;29.80;95.20;;;;;;5133031;27;20348;-71
2023/08/10 11:35:08;;;;;;;;;;;29.90;95.30;;;;;;5132926;27;19904;-71
2023/08/10 11:37:35;;;;;;;;;;;29.80;95.40;;;;;;5133298;27;19916;-72
2023/08/10 11:40:07;;;;;;;;;;;30.00;95.10;;;;;;5133399;27;19908;-72
2023/08/10 11:42:36;;;;;;;;;;;29.80;94.30;;;;;;5133142;27;19974;-71
2023/08/10 11:45:09;;;;;;;;;;;29.50;94.90;;;;;;5135333;27;19914;-72
2023/08/10 11:47:42;;;;;;;;;;;29.80;93.60;;;;;;5137071;27;19904;-72
2023/08/10 11:50:12;;;;;;;;;;;29.70;93.70;;;;;;5135464;27;19907;-71
2023/08/10 11:52:39;;;;;;;;;;;29.80;93.90;;;;;;5136924;27;19907;-71
2023/08/10 11:55:14;;;;;;;;;;;29.80;94.40;;;;;;5136820;27;19954;-71
2023/08/10 11:57:41;;;;;;;;;;;29.70;94.70;;;;;;5137136;27;19904;-71
2023/08/10 12:00:29;;;;;;;;;;;29.80;94.80;;;;;;5136643;27;19915;-72
2023/08/10 12:02:58;;;;;;;;;;;29.80;94.60;;;;;;5137234;27;20002;-72
2023/08/10 12:05:40;;;;;;;;;;;29.80;94.10;;;;;;5136732;27;19907;-71
2023/08/10 12:08:07;;;;;;;;;;;30.10;93.80;;;;;;5136398;27;19911;-71
2023/08/10 12:10:37;;;;;;;;;;;29.80;94.00;;;;;;5136411;27;20277;-71
2023/08/10 12:13:03;;;;;;;;;;;29.90;94.00;;;;;;5136532;27;20351;-72
2023/08/10 12:15:32;;;;;;;;;;;29.90;93.50;;;;;;5136357;27;19903;-71
2023/08/10 12:18:02;;;;;;;;;;;30.00;93.70;;;;;;5136518;27;19903;-72
2023/08/10 12:20:28;;;;;;;;;;;30.10;93.50;;;;;;5136331;27;20017;-72
2023/08/10 12:22:54;;;;;;;;;;;30.10;93.70;;;;;;5136012;27;20323;-73
2023/08/10 12:25:20;;;;;;;;;;;29.80;94.00;;;;;;5136254;27;19910;-69
2023/08/10 12:27:47;;;;;;;;;;;30.00;94.00;;;;;;5136787;27;19903;-72
2023/08/10 12:30:13;;;;;;;;;;;30.40;93.90;;;;;;5136061;27;19998;-71
2023/08/10 12:32:38;;;;;;;;;;;30.40;93.20;;;;;;5136246;27;20394;-72
2023/08/10 12:35:06;;;;;;;;;;;30.40;92.90;;;;;;5135864;27;19926;-71
2023/08/10 12:37:32;;;;;;;;;;;30.40;93.20;;;;;;5135790;27;19911;-72
2023/08/10 12:39:58;;;;;;;;;;;30.20;93.60;;;;;;5136053;27;19914;-72
2023/08/10 12:42:26;;;;;;;;;;;30.30;93.60;;;;;;5135946;27;20006;-72
2023/08/10 12:44:52;;;;;;;;;;;30.40;93.90;;;;;;5135922;27;19907;-71
2023/08/10 12:47:18;;;;;;;;;;;30.30;94.20;;;;;;5136293;27;19994;-71
2023/08/10 12:49:44;;;;;;;;;;;30.00;93.80;;;;;;5136747;27;20378;-72
2023/08/10 12:52:10;;;;;;;;;;;30.00;93.50;;;;;;5135611;27;19926;-71
2023/08/10 12:54:36;;;;;;;;;;;30.10;93.60;;;;;;5135677;27;20390;-71
2023/08/10 12:57:03;;;;;;;;;;;29.90;93.10;;;;;;5134576;27;19960;-72
2023/08/10 12:59:29;;;;;;;;;;;29.80;93.90;;;;;;5134227;27;20390;-72
2023/08/10 13:01:55;;;;;;;;;;;30.00;96.40;;;;;;5136058;27;19915;-71
2023/08/10 13:04:20;;;;;;;;;;;29.80;98.30;;;;;;5135651;27;20379;-72
2023/08/10 13:06:46;;;;;;;;;;;29.70;99.90;;;;;;5135415;27;19940;-71
2023/08/10 13:09:12;;;;;;;;;;;29.60;99.90;;;;;;5135875;27;20013;-71
2023/08/10 13:11:39;;;;;;;;;;;29.70;99.90;;;;;;5135588;27;19925;-71
2023/08/10 13:14:06;;;;;;;;;;;30.00;99.90;;;;;;5135415;27;19979;-72
2023/08/10 13:16:31;;;;;;;;;;;30.00;99.90;;;;;;5135248;27;19911;-71
2023/08/10 13:18:57;;;;;;;;;;;29.70;99.90;;;;;;5135760;27;19994;-70
2023/08/10 13:21:23;;;;;;;;;;;30.00;99.90;;;;;;5134900;27;20072;-70
2023/08/10 13:23:49;;;;;;;;;;;29.80;99.90;;;;;;5135096;27;20039;-71
2023/08/10 13:26:16;;;;;;;;;;;30.00;99.90;;;;;;5135084;27;19956;-71
2023/08/10 13:28:42;;;;;;;;;;;29.80;99.90;;;;;;5135003;27;19903;-71
2023/08/10 13:31:08;;;;;;;;;;;29.70;99.90;;;;;;5134832;27;19910;-69
2023/08/10 13:33:34;;;;;;;;;;;29.50;99.90;;;;;;5134710;27;19994;-72
2023/08/10 13:36:02;;;;;;;;;;;29.60;99.90;;;;;;5133143;27;19926;-70
2023/08/10 13:38:28;;;;;;;;;;;29.40;99.90;;;;;;5134722;27;19923;-70
2023/08/10 13:40:55;;;;;;;;;;;29.20;99.90;;;;;;5134870;27;19909;-70
2023/08/10 13:43:21;;;;;;;;;;;29.00;99.90;;;;;;5134246;27;19914;-70
2023/08/10 13:45:47;;;;;;;;;;;29.00;99.90;;;;;;5134802;27;19903;-70
2023/08/10 13:48:13;;;;;;;;;;;28.90;99.90;;;;;;5134516;27;19946;-70
2023/08/10 13:50:39;;;;;;;;;;;29.20;99.90;;;;;;5134840;27;19999;-71
2023/08/10 13:53:05;;;;;;;;;;;29.20;99.90;;;;;;5134938;27;19956;-70
2023/08/10 13:55:31;;;;;;;;;;;29.30;99.90;;;;;;5134770;27;20365;-71
2023/08/10 13:57:56;;;;;;;;;;;29.00;99.90;;;;;;5133091;27;19903;-70
2023/08/10 14:00:24;;;;;;;;;;;29.30;99.90;;;;;;5132815;27;19916;-70
2023/08/10 14:02:50;;;;;;;;;;;29.40;99.90;;;;;;5134314;27;19903;-72
2023/08/10 14:05:16;;;;;;;;;;;29.30;99.90;;;;;;5134231;27;19974;-71
2023/08/10 14:07:42;;;;;;;;;;;29.40;99.90;;;;;;5134154;27;19903;-71
2023/08/10 14:10:11;;;;;;;;;;;29.40;99.90;;;;;;5134226;27;20221;-71
2023/08/10 14:12:36;;;;;;;;;;;29.10;99.90;;;;;;5134822;27;19903;-71
2023/08/10 14:15:02;;;;;;;;;;;29.00;99.90;;;;;;5134076;27;19918;-71